sensor_id;sensor_type;location;lat;lon;timestamp;pressure;altitude;pressure_sealevel;temperature;humidity
22261;BME280;11299;43.202;27.920;2023-04-26T00:01:16;138301.91;;;13.40;100.00
22261;BME280;11299;43.202;27.920;2023-04-26T00:03:42;138324.81;;;13.50;100.00
22261;BME280;11299;43.202;27.920;2023-04-26T00:06:07;138317.97;;;13.47;100.00
22261;BME280;11299;43.202;27.920;2023-04-26T00:08:36;137967.72;;;13.51;100.00
22261;BME280;11299;43.202;27.920;2023-04-26T00:11:02;137915.06;;;13.28;100.00
22261;BME280;11299;43.202;27.920;2023-04-26T00:13:28;138267.47;;;13.25;100.00
22261;BME280;11299;43.202;27.920;2023-04-26T00:15:53;139062.25;;;13.58;100.00
22261;BME280;11299;43.202;27.920;2023-04-26T00:18:18;139389.41;;;13.44;100.00
22261;BME280;11299;43.202;27.920;2023-04-26T00:20:44;139716.47;;;13.30;100.00
22261;BME280;11299;43.202;27.920;2023-04-26T00:23:10;141417.81;;;12.88;100.00
22261;BME280;11299;43.202;27.920;2023-04-26T00:25:36;143234.22;;;12.96;100.00
22261;BME280;11299;43.202;27.920;2023-04-26T00:28:02;144691.06;;;13.04;100.00
22261;BME280;11299;43.202;27.920;2023-04-26T00:30:27;145360.03;;;12.83;100.00
22261;BME280;11299;43.202;27.920;2023-04-26T00:32:53;145931.53;;;12.21;100.00
22261;BME280;11299;43.202;27.920;2023-04-26T00:35:19;146964.88;;;12.03;100.00
22261;BME280;11299;43.202;27.920;2023-04-26T00:37:44;148504.19;;;12.44;100.00
22261;BME280;11299;43.202;27.920;2023-04-26T00:40:11;149561.53;;;12.35;100.00
22261;BME280;11299;43.202;27.920;2023-04-26T00:42:39;149973.81;;;12.56;100.00
22261;BME280;11299;43.202;27.920;2023-04-26T00:45:06;150302.63;;;12.44;100.00
22261;BME280;11299;43.202;27.920;2023-04-26T00:47:31;150273.88;;;12.32;100.00
22261;BME280;11299;43.202;27.920;2023-04-26T00:49:58;150651.44;;;12.39;100.00
22261;BME280;11299;43.202;27.920;2023-04-26T00:52:24;150582.53;;;12.11;100.00
22261;BME280;11299;43.202;27.920;2023-04-26T00:54:50;150325.84;;;11.08;100.00
22261;BME280;11299;43.202;27.920;2023-04-26T00:57:17;150572.50;;;12.07;100.00
22261;BME280;11299;43.202;27.920;2023-04-26T00:59:43;150943.69;;;12.12;100.00
22261;BME280;11299;43.202;27.920;2023-04-26T01:02:08;151289.75;;;12.06;100.00
22261;BME280;11299;43.202;27.920;2023-04-26T01:04:34;151608.06;;;11.90;100.00
22261;BME280;11299;43.202;27.920;2023-04-26T01:07:01;151645.91;;;12.05;100.00
22261;BME280;11299;43.202;27.920;2023-04-26T01:09:29;151876.88;;;11.54;100.00
22261;BME280;11299;43.202;27.920;2023-04-26T01:11:55;152010.94;;;12.07;100.00
22261;BME280;11299;43.202;27.920;2023-04-26T01:14:22;151940.13;;;11.79;100.00
22261;BME280;11299;43.202;27.920;2023-04-26T01:16:48;151879.38;;;11.55;100.00
22261;BME280;11299;43.202;27.920;2023-04-26T01:19:14;152353.16;;;12.00;100.00
22261;BME280;11299;43.202;27.920;2023-04-26T01:21:41;152395.03;;;12.16;100.00
22261;BME280;11299;43.202;27.920;2023-04-26T01:24:11;151998.25;;;12.02;100.00
22261;BME280;11299;43.202;27.920;2023-04-26T01:26:37;152332.91;;;11.92;100.00
22261;BME280;11299;43.202;27.920;2023-04-26T01:29:18;152382.31;;;12.11;100.00
22261;BME280;11299;43.202;27.920;2023-04-26T01:31:44;152384.88;;;12.12;100.00
22261;BME280;11299;43.202;27.920;2023-04-26T01:34:11;152137.75;;;11.14;100.00
22261;BME280;11299;43.202;27.920;2023-04-26T01:36:37;151960.34;;;11.87;100.00
22261;BME280;11299;43.202;27.920;2023-04-26T01:39:02;152343.06;;;11.96;100.00
22261;BME280;11299;43.202;27.920;2023-04-26T01:41:28;152338.00;;;11.94;100.00
22261;BME280;11299;43.202;27.920;2023-04-26T01:43:54;152299.97;;;11.79;100.00
22261;BME280;11299;43.202;27.920;2023-04-26T01:46:20;152183.34;;;11.32;100.00
22261;BME280;11299;43.202;27.920;2023-04-26T01:48:45;152368.38;;;12.06;100.00
22261;BME280;11299;43.202;27.920;2023-04-26T01:51:11;152379.81;;;12.10;100.00
22261;BME280;11299;43.202;27.920;2023-04-26T01:53:37;151970.44;;;11.91;100.00
22261;BME280;11299;43.202;27.920;2023-04-26T01:56:02;151426.44;;;11.17;100.00
22261;BME280;11299;43.202;27.920;2023-04-26T01:58:28;150870.84;;;11.83;100.00
22261;BME280;11299;43.202;27.920;2023-04-26T02:00:56;150513.66;;;11.84;100.00
22261;BME280;11299;43.202;27.920;2023-04-26T02:03:22;150315.81;;;11.04;100.00
22261;BME280;11299;43.202;27.920;2023-04-26T02:05:47;150071.47;;;11.51;100.00
22261;BME280;11299;43.202;27.920;2023-04-26T02:08:13;150102.72;;;11.63;100.00
22261;BME280;11299;43.202;27.920;2023-04-26T02:10:38;150094.00;;;11.60;100.00
22261;BME280;11299;43.202;27.920;2023-04-26T02:13:06;150029.06;;;11.33;100.00
22261;BME280;11299;43.202;27.920;2023-04-26T02:15:32;150103.97;;;11.64;100.00
22261;BME280;11299;43.202;27.920;2023-04-26T02:17:57;150128.97;;;11.74;100.00
22261;BME280;11299;43.202;27.920;2023-04-26T02:20:23;150473.56;;;11.68;100.00
22261;BME280;11299;43.202;27.920;2023-04-26T02:22:48;150131.50;;;11.75;100.00
22261;BME280;11299;43.202;27.920;2023-04-26T02:25:14;149702.09;;;11.47;100.00
22261;BME280;11299;43.202;27.920;2023-04-26T02:27:39;149759.41;;;11.70;100.00
22261;BME280;11299;43.202;27.920;2023-04-26T02:30:06;149814.28;;;11.92;100.00
22261;BME280;11299;43.202;27.920;2023-04-26T02:32:32;149412.34;;;11.75;100.00
22261;BME280;11299;43.202;27.920;2023-04-26T02:34:57;149383.72;;;11.63;100.00
22261;BME280;11299;43.202;27.920;2023-04-26T02:37:23;149245.75;;;11.07;100.00
22261;BME280;11299;43.202;27.920;2023-04-26T02:39:49;149027.97;;;11.65;100.00
22261;BME280;11299;43.202;27.920;2023-04-26T02:42:15;149421.03;;;11.78;100.00
22261;BME280;11299;43.202;27.920;2023-04-26T02:44:41;149332.75;;;11.43;100.00
22261;BME280;11299;43.202;27.920;2023-04-26T02:47:07;149424.75;;;11.80;100.00
22261;BME280;11299;43.202;27.920;2023-04-26T02:49:33;149771.91;;;11.75;100.00
22261;BME280;11299;43.202;27.920;2023-04-26T02:51:58;149761.94;;;11.71;100.00
22261;BME280;11299;43.202;27.920;2023-04-26T02:54:24;149382.44;;;11.63;100.00
22261;BME280;11299;43.202;27.920;2023-04-26T02:56:50;149288.00;;;11.24;100.00
22261;BME280;11299;43.202;27.920;2023-04-26T02:59:15;149300.44;;;11.29;100.00
22261;BME280;11299;43.202;27.920;2023-04-26T03:01:41;149392.44;;;11.67;100.00
22261;BME280;11299;43.202;27.920;2023-04-26T03:04:06;149629.81;;;11.17;100.00
22261;BME280;11299;43.202;27.920;2023-04-26T03:06:32;149684.63;;;11.39;100.00
22261;BME280;11299;43.202;27.920;2023-04-26T03:08:57;149774.38;;;11.76;100.00
22261;BME280;11299;43.202;27.920;2023-04-26T03:11:23;149779.38;;;11.78;100.00
22261;BME280;11299;43.202;27.920;2023-04-26T03:13:48;149604.91;;;11.07;100.00
22261;BME280;11299;43.202;27.920;2023-04-26T03:16:14;149751.97;;;11.67;100.00
22261;BME280;11299;43.202;27.920;2023-04-26T03:18:40;149934.16;;;10.95;100.00
22261;BME280;11299;43.202;27.920;2023-04-26T03:21:06;149731.97;;;11.59;100.00
22261;BME280;11299;43.202;27.920;2023-04-26T03:23:31;150075.25;;;11.52;100.00
22261;BME280;11299;43.202;27.920;2023-04-26T03:25:56;150478.59;;;11.70;100.00
22261;BME280;11299;43.202;27.920;2023-04-26T03:28:22;150449.78;;;11.58;100.00
22261;BME280;11299;43.202;27.920;2023-04-26T03:30:48;150770.44;;;11.43;100.00
22261;BME280;11299;43.202;27.920;2023-04-26T03:33:16;150842.03;;;11.71;100.00
22261;BME280;11299;43.202;27.920;2023-04-26T03:35:42;150789.25;;;11.50;100.00
22261;BME280;11299;43.202;27.920;2023-04-26T03:38:08;151240.66;;;11.87;100.00
22261;BME280;11299;43.202;27.920;2023-04-26T03:40:33;151162.66;;;11.56;100.00
22261;BME280;11299;43.202;27.920;2023-04-26T03:42:59;151228.09;;;11.82;100.00
22261;BME280;11299;43.202;27.920;2023-04-26T03:45:24;151176.47;;;11.61;100.00
22261;BME280;11299;43.202;27.920;2023-04-26T03:47:51;150469.81;;;11.66;100.00
22261;BME280;11299;43.202;27.920;2023-04-26T03:50:16;150649.97;;;10.94;100.00
22261;BME280;11299;43.202;27.920;2023-04-26T03:52:42;150789.25;;;11.50;100.00
22261;BME280;11299;43.202;27.920;2023-04-26T03:55:07;151197.88;;;11.70;100.00
22261;BME280;11299;43.202;27.920;2023-04-26T03:57:34;151215.53;;;11.77;100.00
22261;BME280;11299;43.202;27.920;2023-04-26T04:00:00;151163.91;;;11.56;100.00
22261;BME280;11299;43.202;27.920;2023-04-26T04:02:25;151175.22;;;11.61;100.00
22261;BME280;11299;43.202;27.920;2023-04-26T04:04:51;151114.84;;;11.36;100.00
22261;BME280;11299;43.202;27.920;2023-04-26T04:07:16;150972.75;;;10.80;100.00
22261;BME280;11299;43.202;27.920;2023-04-26T04:09:43;151215.53;;;11.77;100.00
22261;BME280;11299;43.202;27.920;2023-04-26T04:12:08;151069.53;;;11.18;100.00
22261;BME280;11299;43.202;27.920;2023-04-26T04:14:34;151014.22;;;10.96;100.00
22261;BME280;11299;43.202;27.920;2023-04-26T04:16:59;151046.91;;;11.09;100.00
22261;BME280;11299;43.202;27.920;2023-04-26T04:19:25;151128.69;;;11.42;100.00
22261;BME280;11299;43.202;27.920;2023-04-26T04:21:51;151547.56;;;11.66;100.00
22261;BME280;11299;43.202;27.920;2023-04-26T04:24:16;151509.63;;;11.51;100.00
22261;BME280;11299;43.202;27.920;2023-04-26T04:26:41;151227.31;;;10.38;100.00
22261;BME280;11299;43.202;27.920;2023-04-26T04:29:07;151575.28;;;11.77;100.00
22261;BME280;11299;43.202;27.920;2023-04-26T04:31:34;151190.38;;;11.67;100.00
22261;BME280;11299;43.202;27.920;2023-04-26T04:34:00;151528.59;;;11.58;100.00
22261;BME280;11299;43.202;27.920;2023-04-26T04:36:25;151499.59;;;11.47;100.00
22261;BME280;11299;43.202;27.920;2023-04-26T04:38:51;151531.09;;;11.59;100.00
22261;BME280;11299;43.202;27.920;2023-04-26T04:41:18;151592.94;;;11.84;100.00
22261;BME280;11299;43.202;27.920;2023-04-26T04:43:44;151355.88;;;10.89;100.00
22261;BME280;11299;43.202;27.920;2023-04-26T04:46:10;151393.66;;;11.04;100.00
22261;BME280;11299;43.202;27.920;2023-04-26T04:48:36;151603.03;;;11.88;100.00
22261;BME280;11299;43.202;27.920;2023-04-26T04:51:03;151498.31;;;11.46;100.00
22261;BME280;11299;43.202;27.920;2023-04-26T04:53:29;151650.97;;;12.07;100.00
22261;BME280;11299;43.202;27.920;2023-04-26T04:55:54;151590.38;;;11.83;100.00
22261;BME280;11299;43.202;27.920;2023-04-26T04:58:21;151524.75;;;11.57;100.00
22261;BME280;11299;43.202;27.920;2023-04-26T05:00:47;151711.50;;;12.31;100.00
22261;BME280;11299;43.202;27.920;2023-04-26T05:03:15;151336.31;;;12.25;100.00
22261;BME280;11299;43.202;27.920;2023-04-26T05:05:41;150599.81;;;10.74;100.00
22261;BME280;11299;43.202;27.920;2023-04-26T05:08:06;150265.16;;;12.28;100.00
22261;BME280;11299;43.202;27.920;2023-04-26T05:10:33;150261.41;;;12.27;100.00
22261;BME280;11299;43.202;27.920;2023-04-26T05:12:59;149707.09;;;11.49;100.00
22261;BME280;11299;43.202;27.920;2023-04-26T05:15:24;149454.63;;;11.92;100.00
22261;BME280;11299;43.202;27.920;2023-04-26T05:17:50;150081.47;;;11.55;100.00
22261;BME280;11299;43.202;27.920;2023-04-26T05:20:15;150965.03;;;12.20;100.00
22261;BME280;11299;43.202;27.920;2023-04-26T05:22:41;151068.31;;;11.18;100.00
22261;BME280;11299;43.202;27.920;2023-04-26T05:25:09;151302.31;;;12.11;100.00
22261;BME280;11299;43.202;27.920;2023-04-26T05:27:35;151690.09;;;12.22;100.00
22261;BME280;11299;43.202;27.920;2023-04-26T05:30:03;152041.25;;;12.19;100.00
22261;BME280;11299;43.202;27.920;2023-04-26T05:32:28;151922.41;;;11.72;100.00
22261;BME280;11299;43.202;27.920;2023-04-26T05:34:54;151715.28;;;12.32;100.00
22261;BME280;11299;43.202;27.920;2023-04-26T05:37:19;151031.56;;;12.47;100.00
22261;BME280;11299;43.202;27.920;2023-04-26T05:39:45;150233.94;;;12.16;100.00
22261;BME280;11299;43.202;27.920;2023-04-26T05:42:11;150668.97;;;12.46;100.00
22261;BME280;11299;43.202;27.920;2023-04-26T05:44:36;149952.59;;;12.48;100.00
22261;BME280;11299;43.202;27.920;2023-04-26T05:47:01;149618.75;;;12.58;100.00
22261;BME280;11299;43.202;27.920;2023-04-26T05:49:27;149160.72;;;12.18;100.00
22261;BME280;11299;43.202;27.920;2023-04-26T05:51:52;149226.47;;;12.45;100.00
22261;BME280;11299;43.202;27.920;2023-04-26T05:54:18;148767.56;;;12.05;100.00
22261;BME280;11299;43.202;27.920;2023-04-26T05:56:43;147996.63;;;11.84;100.00
22261;BME280;11299;43.202;27.920;2023-04-26T05:59:09;147479.97;;;12.67;100.00
22261;BME280;11299;43.202;27.920;2023-04-26T06:01:34;146703.00;;;12.43;100.00
22261;BME280;11299;43.202;27.920;2023-04-26T06:04:00;145527.34;;;12.03;100.00
22261;BME280;11299;43.202;27.920;2023-04-26T06:06:25;144532.44;;;12.38;100.00
22261;BME280;11299;43.202;27.920;2023-04-26T06:08:52;143544.97;;;12.76;100.00
22261;BME280;11299;43.202;27.920;2023-04-26T06:11:18;142805.81;;;12.67;100.00
22261;BME280;11299;43.202;27.920;2023-04-26T06:13:43;143467.50;;;12.43;100.00
22261;BME280;11299;43.202;27.920;2023-04-26T06:16:09;144224.56;;;12.59;100.00
22261;BME280;11299;43.202;27.920;2023-04-26T06:18:35;145175.25;;;12.06;100.00
22261;BME280;11299;43.202;27.920;2023-04-26T06:21:01;146387.13;;;12.61;100.00
22261;BME280;11299;43.202;27.920;2023-04-26T06:23:26;147095.63;;;12.57;100.00
22261;BME280;11299;43.202;27.920;2023-04-26T06:25:52;147395.38;;;12.32;100.00
22261;BME280;11299;43.202;27.920;2023-04-26T06:28:17;148208.41;;;12.70;100.00
22261;BME280;11299;43.202;27.920;2023-04-26T06:30:43;148925.97;;;12.69;100.00
22261;BME280;11299;43.202;27.920;2023-04-26T06:33:08;149238.88;;;12.50;100.00
22261;BME280;11299;43.202;27.920;2023-04-26T06:35:40;149241.31;;;12.51;100.00
22261;BME280;11299;43.202;27.920;2023-04-26T06:38:06;149948.88;;;12.46;100.00
22261;BME280;11299;43.202;27.920;2023-04-26T06:40:32;150316.38;;;12.49;100.00
22261;BME280;11299;43.202;27.920;2023-04-26T06:42:57;150694.03;;;12.56;100.00
22261;BME280;11299;43.202;27.920;2023-04-26T06:45:23;150929.88;;;12.06;100.00
22261;BME280;11299;43.202;27.920;2023-04-26T06:47:51;151313.69;;;12.16;100.00
22261;BME280;11299;43.202;27.920;2023-04-26T06:50:17;151366.53;;;12.37;100.00
22261;BME280;11299;43.202;27.920;2023-04-26T06:52:43;151826.34;;;12.77;100.00
22261;BME280;11299;43.202;27.920;2023-04-26T06:55:08;152250.00;;;13.02;100.00
22261;BME280;11299;43.202;27.920;2023-04-26T06:57:34;152360.13;;;10.60;100.00
22261;BME280;11299;43.202;27.920;2023-04-26T06:59:59;153713.00;;;13.10;100.00
22261;BME280;11299;43.202;27.920;2023-04-26T07:02:25;153966.19;;;12.68;100.00
22261;BME280;11299;43.202;27.920;2023-04-26T07:04:51;154244.63;;;12.36;100.00
22261;BME280;11299;43.202;27.920;2023-04-26T07:07:16;154825.03;;;13.21;100.00
22261;BME280;11299;43.202;27.920;2023-04-26T07:09:42;154812.19;;;13.16;100.00
22261;BME280;11299;43.202;27.920;2023-04-26T07:12:11;154686.03;;;12.67;100.00
22261;BME280;11299;43.202;27.920;2023-04-26T07:14:37;154720.78;;;12.81;100.00
22261;BME280;11299;43.202;27.920;2023-04-26T07:17:06;154948.59;;;13.70;100.00
22261;BME280;11299;43.202;27.920;2023-04-26T07:19:31;154566.84;;;13.62;100.00
22261;BME280;11299;43.202;27.920;2023-04-26T07:21:57;154453.84;;;13.17;100.00
22261;BME280;11299;43.202;27.920;2023-04-26T07:24:22;154414.03;;;13.02;100.00
22261;BME280;11299;43.202;27.920;2023-04-26T07:26:48;153893.19;;;13.81;100.00
22261;BME280;11299;43.202;27.920;2023-04-26T07:29:13;153023.38;;;13.23;100.00
22261;BME280;11299;43.202;27.920;2023-04-26T07:31:39;152420.94;;;13.70;100.00
22261;BME280;11299;43.202;27.920;2023-04-26T07:34:04;152107.97;;;13.89;100.00
22261;BME280;11299;43.202;27.920;2023-04-26T07:36:30;151462.59;;;14.19;100.00
22261;BME280;11299;43.202;27.920;2023-04-26T07:38:56;151510.44;;;14.39;100.00
22261;BME280;11299;43.202;27.920;2023-04-26T07:41:21;149359.59;;;14.45;100.00
22261;BME280;11299;43.202;27.920;2023-04-26T07:43:47;146864.47;;;14.58;100.00
22261;BME280;11299;43.202;27.920;2023-04-26T07:46:12;143965.16;;;14.53;100.00
22261;BME280;11299;43.202;27.920;2023-04-26T07:48:38;141876.34;;;14.84;100.00
22261;BME280;11299;43.202;27.920;2023-04-26T07:51:12;136886.44;;;15.08;100.00
22261;BME280;11299;43.202;27.920;2023-04-26T07:53:39;135439.22;;;15.05;100.00
22261;BME280;11299;43.202;27.920;2023-04-26T07:56:06;125771.16;;;15.25;100.00
22261;BME280;11299;43.202;27.920;2023-04-26T07:58:33;121151.31;;;15.48;100.00
22261;BME280;11299;43.202;27.920;2023-04-26T08:00:59;119312.16;;;15.25;100.00
22261;BME280;11299;43.202;27.920;2023-04-26T08:03:24;108993.16;;;15.59;100.00
22261;BME280;11299;43.202;27.920;2023-04-26T08:05:51;101144.59;;;15.66;100.00
22261;BME280;11299;43.202;27.920;2023-04-26T08:08:18;93269.56;;;15.45;100.00
22261;BME280;11299;43.202;27.920;2023-04-26T08:10:43;91581.16;;;16.05;100.00
22261;BME280;11299;43.202;27.920;2023-04-26T08:13:09;91839.94;;;15.41;100.00
22261;BME280;11299;43.202;27.920;2023-04-26T08:15:34;74461.50;;;15.50;100.00
22261;BME280;11299;43.202;27.920;2023-04-26T08:18:00;74132.03;;;15.70;100.00
22261;BME280;11299;43.202;27.920;2023-04-26T08:20:25;68865.97;;;16.07;100.00
22261;BME280;11299;43.202;27.920;2023-04-26T08:22:58;68509.94;;;16.05;100.00
22261;BME280;11299;43.202;27.920;2023-04-26T08:25:24;44895.31;;;16.10;100.00
22261;BME280;11299;43.202;27.920;2023-04-26T08:27:50;21418.50;;;15.53;100.00
22261;BME280;11299;43.202;27.920;2023-04-26T08:30:17;28750.34;;;15.62;100.00
22261;BME280;11299;43.202;27.920;2023-04-26T08:32:43;24236.72;;;16.22;100.00
22261;BME280;11299;43.202;27.920;2023-04-26T08:35:10;12732.06;;;16.21;100.00
22261;BME280;11299;43.202;27.920;2023-04-26T08:37:35;18649.59;;;16.09;100.00
22261;BME280;11299;43.202;27.920;2023-04-26T08:40:05;9253.63;;;16.20;100.00
22261;BME280;11299;43.202;27.920;2023-04-26T08:42:38;919.78;;;15.92;100.00
22261;BME280;11299;43.202;27.920;2023-04-26T08:45:06;2654.13;;;16.05;100.00
22261;BME280;11299;43.202;27.920;2023-04-26T08:50:14;8207.19;;;15.96;100.00
22261;BME280;11299;43.202;27.920;2023-04-26T08:52:41;4041.25;;;15.98;100.00
22261;BME280;11299;43.202;27.920;2023-04-26T08:55:08;11323.34;;;15.39;100.00
22261;BME280;11299;43.202;27.920;2023-04-26T08:57:35;31212.63;;;15.92;100.00
22261;BME280;11299;43.202;27.920;2023-04-26T09:00:04;25938.41;;;15.21;100.00
22261;BME280;11299;43.202;27.920;2023-04-26T09:02:30;36810.81;;;15.87;100.00
22261;BME280;11299;43.202;27.920;2023-04-26T09:04:56;46555.28;;;14.84;100.00
22261;BME280;11299;43.202;27.920;2023-04-26T09:07:33;50806.34;;;15.31;100.00
22261;BME280;11299;43.202;27.920;2023-04-26T09:10:00;59330.50;;;16.10;100.00
22261;BME280;11299;43.202;27.920;2023-04-26T09:12:25;65328.28;;;16.05;100.00
22261;BME280;11299;43.202;27.920;2023-04-26T09:14:51;62855.28;;;16.05;100.00
22261;BME280;11299;43.202;27.920;2023-04-26T09:17:34;47701.41;;;16.02;100.00
22261;BME280;11299;43.202;27.920;2023-04-26T09:20:09;48067.03;;;16.20;100.00
22261;BME280;11299;43.202;27.920;2023-04-26T09:22:41;24231.09;;;16.09;100.00
22261;BME280;11299;43.202;27.920;2023-04-26T09:25:07;16913.19;;;16.29;100.00
22261;BME280;11299;43.202;27.920;2023-04-26T09:27:36;18655.47;;;16.27;100.00
22261;BME280;11299;43.202;27.920;2023-04-26T09:35:30;83745.59;;;15.98;100.00
22261;BME280;11299;43.202;27.920;2023-04-26T09:38:09;99502.88;;;14.35;100.00
22261;BME280;11299;43.202;27.920;2023-04-26T09:40:44;111717.59;;;14.84;100.00
22261;BME280;11299;43.202;27.920;2023-04-26T09:43:15;119672.66;;;15.26;100.00
22261;BME280;11299;43.202;27.920;2023-04-26T09:45:49;127569.53;;;15.26;100.00
22261;BME280;11299;43.202;27.920;2023-04-26T09:48:24;132222.31;;;15.16;100.00
22261;BME280;11299;43.202;27.920;2023-04-26T09:50:56;135422.38;;;14.98;100.00
22261;BME280;11299;43.202;27.920;2023-04-26T09:53:34;138638.50;;;14.87;100.00
22261;BME280;11299;43.202;27.920;2023-04-26T09:56:12;138969.94;;;14.74;100.00
22261;BME280;11299;43.202;27.920;2023-04-26T10:01:18;141482.97;;;14.70;100.00
22261;BME280;11299;43.202;27.920;2023-04-26T10:03:45;143323.66;;;14.86;100.00
22261;BME280;11299;43.202;27.920;2023-04-26T10:06:14;143980.66;;;14.59;100.00
22261;BME280;11299;43.202;27.920;2023-04-26T10:08:40;145180.66;;;15.08;100.00
22261;BME280;11299;43.202;27.920;2023-04-26T10:11:06;145791.56;;;14.62;100.00
22261;BME280;11299;43.202;27.920;2023-04-26T10:13:32;145209.56;;;15.21;100.00
22261;BME280;11299;43.202;27.920;2023-04-26T10:16:01;143415.19;;;15.25;100.00
22261;BME280;11299;43.202;27.920;2023-04-26T10:18:28;143649.84;;;14.72;100.00
22261;BME280;11299;43.202;27.920;2023-04-26T10:20:57;142947.56;;;14.80;100.00
22261;BME280;11299;43.202;27.920;2023-04-26T10:23:24;140927.97;;;15.42;100.00
22261;BME280;11299;43.202;27.920;2023-04-26T10:25:50;139841.06;;;15.40;100.00
22261;BME280;11299;43.202;27.920;2023-04-26T10:31:05;139641.81;;;14.53;100.00
22261;BME280;11299;43.202;27.920;2023-04-26T10:33:32;136553.44;;;15.21;100.00
22261;BME280;11299;43.202;27.920;2023-04-26T10:36:09;136606.69;;;15.44;100.00
22261;BME280;11299;43.202;27.920;2023-04-26T10:38:36;136749.25;;;14.48;100.00
22261;BME280;11299;43.202;27.920;2023-04-26T10:41:33;137739.31;;;15.67;100.00
22261;BME280;11299;43.202;27.920;2023-04-26T10:44:45;139191.25;;;15.71;100.00
22261;BME280;11299;43.202;27.920;2023-04-26T10:46:50;136716.47;;;15.93;100.00
22261;BME280;11299;43.202;27.920;2023-04-26T10:49:18;132649.09;;;15.46;100.00
22261;BME280;11299;43.202;27.920;2023-04-26T10:52:12;122372.69;;;16.20;100.00
22261;BME280;11299;43.202;27.920;2023-04-26T10:54:50;114074.63;;;15.97;100.00
22261;BME280;11299;43.202;27.920;2023-04-26T10:57:16;113423.56;;;16.32;100.00
22261;BME280;11299;43.202;27.920;2023-04-26T11:02:55;99503.78;;;16.53;100.00
22261;BME280;11299;43.202;27.920;2023-04-26T11:05:57;112424.41;;;16.73;100.00
22261;BME280;11299;43.202;27.920;2023-04-26T11:08:29;116458.41;;;17.19;100.00
22261;BME280;11299;43.202;27.920;2023-04-26T11:16:03;81816.19;;;17.48;100.00
22261;BME280;11299;43.202;27.920;2023-04-26T11:18:30;87879.53;;;17.53;100.00
22261;BME280;11299;43.202;27.920;2023-04-26T11:20:57;68354.84;;;17.81;100.00
22261;BME280;11299;43.202;27.920;2023-04-26T11:23:25;63393.97;;;17.82;100.00
22261;BME280;11299;43.202;27.920;2023-04-26T11:25:51;69032.34;;;17.53;100.00
22261;BME280;11299;43.202;27.920;2023-04-26T11:28:19;77192.22;;;17.48;100.00
22261;BME280;11299;43.202;27.920;2023-04-26T11:30:48;75724.31;;;17.11;100.00
22261;BME280;11299;43.202;27.920;2023-04-26T11:33:19;70343.81;;;16.60;100.00
22261;BME280;11299;43.202;27.920;2023-04-26T11:35:51;66475.25;;;16.84;100.00
22261;BME280;11299;43.202;27.920;2023-04-26T11:38:17;58304.66;;;16.44;100.00
22261;BME280;11299;43.202;27.920;2023-04-26T11:40:52;56616.38;;;17.25;100.00
22261;BME280;11299;43.202;27.920;2023-04-26T11:43:19;55132.31;;;16.46;100.00
22261;BME280;11299;43.202;27.920;2023-04-26T11:45:44;74552.28;;;16.24;100.00
22261;BME280;11299;43.202;27.920;2023-04-26T11:48:11;80279.06;;;16.62;100.00
22261;BME280;11299;43.202;27.920;2023-04-26T11:50:37;83487.06;;;16.68;100.00
22261;BME280;11299;43.202;27.920;2023-04-26T11:53:05;78160.97;;;16.72;100.00
22261;BME280;11299;43.202;27.920;2023-04-26T11:55:32;87452.78;;;17.04;100.00
22261;BME280;11299;43.202;27.920;2023-04-26T11:58:08;87802.50;;;17.00;100.00
22261;BME280;11299;43.202;27.920;2023-04-26T12:00:34;81433.31;;;17.28;100.00
22261;BME280;11299;43.202;27.920;2023-04-26T12:03:06;77899.31;;;17.45;100.00
22261;BME280;11299;43.202;27.920;2023-04-26T12:05:35;82130.66;;;17.17;100.00
22261;BME280;11299;43.202;27.920;2023-04-26T12:08:01;77834.84;;;16.94;100.00
22261;BME280;11299;43.202;27.920;2023-04-26T12:10:34;67233.44;;;17.29;100.00
22261;BME280;11299;43.202;27.920;2023-04-26T12:13:01;71695.66;;;16.05;100.00
22261;BME280;11299;43.202;27.920;2023-04-26T12:15:31;86946.03;;;15.99;100.00
22261;BME280;11299;43.202;27.920;2023-04-26T12:20:28;103178.00;;;15.02;100.00
22261;BME280;11299;43.202;27.920;2023-04-26T12:23:04;103778.34;;;16.45;100.00
22261;BME280;11299;43.202;27.920;2023-04-26T12:25:32;107012.47;;;16.53;100.00
22261;BME280;11299;43.202;27.920;2023-04-26T12:27:58;106586.59;;;16.14;100.00
22261;BME280;11299;43.202;27.920;2023-04-26T12:30:26;112324.00;;;16.19;100.00
22261;BME280;11299;43.202;27.920;2023-04-26T12:32:52;112190.25;;;15.47;100.00
22261;BME280;11299;43.202;27.920;2023-04-26T12:35:17;110929.50;;;16.40;100.00
22261;BME280;11299;43.202;27.920;2023-04-26T12:37:42;106628.91;;;16.38;100.00
22261;BME280;11299;43.202;27.920;2023-04-26T12:40:09;105934.28;;;16.50;100.00
22261;BME280;11299;43.202;27.920;2023-04-26T12:42:34;105943.97;;;16.56;100.00
22261;BME280;11299;43.202;27.920;2023-04-26T12:45:00;106165.63;;;15.78;100.00
22261;BME280;11299;43.202;27.920;2023-04-26T12:47:26;104895.59;;;16.70;100.00
22261;BME280;11299;43.202;27.920;2023-04-26T12:49:51;102392.31;;;16.71;100.00
22261;BME280;11299;43.202;27.920;2023-04-26T12:52:17;102353.34;;;16.48;100.00
22261;BME280;11299;43.202;27.920;2023-04-26T12:54:43;101979.84;;;16.38;100.00
22261;BME280;11299;43.202;27.920;2023-04-26T12:57:09;99227.78;;;17.03;100.00